createdAt,value
2023-04-15T00:04:48.394Z,98961.22
2023-04-15T00:09:55.435Z,98953.34
2023-04-15T00:14:59.237Z,98945.54
2023-04-15T00:20:04.037Z,98950.46
2023-04-15T00:25:08.122Z,98949.72
2023-04-15T00:30:12.157Z,98956.45
2023-04-15T00:35:15.827Z,98957.23
2023-04-15T00:40:20.519Z,98950.43
2023-04-15T00:45:24.527Z,98944.52
2023-04-15T00:50:28.259Z,98953.49
2023-04-15T00:55:32.145Z,98953.84
2023-04-15T01:00:36.293Z,98963.27
2023-04-15T01:05:40.204Z,98964.61
2023-04-15T01:10:44.374Z,98959.67
2023-04-15T01:15:49.704Z,98961.41
2023-04-15T01:20:53.654Z,98956.14
2023-04-15T01:26:00.851Z,98952.10
2023-04-15T01:31:13.905Z,98956.02
2023-04-15T01:36:17.705Z,98954.60
2023-04-15T01:41:28.452Z,98961.77
2023-04-15T01:46:32.619Z,98960.02
2023-04-15T01:51:37.273Z,98961.73
2023-04-15T01:56:41.057Z,98962.70
2023-04-15T02:01:45.777Z,98968.70
2023-04-15T02:06:49.508Z,98973.39
2023-04-15T02:11:54.711Z,98975.99
2023-04-15T02:16:58.696Z,98976.90
2023-04-15T02:22:02.565Z,98983.81
2023-04-15T02:27:06.405Z,98979.84
2023-04-15T02:32:10.209Z,98984.58
2023-04-15T02:37:14.871Z,98982.16
2023-04-15T02:42:19.141Z,98987.33
2023-04-15T02:47:24.278Z,98988.66
2023-04-15T02:52:28.557Z,98996.45
2023-04-15T02:57:32.290Z,98993.38
2023-04-15T03:02:41.386Z,98993.73
2023-04-15T03:07:45.155Z,99000.59
2023-04-15T03:12:49.385Z,99016.86
2023-04-15T03:17:55.435Z,99026.66
2023-04-15T03:23:00.417Z,99037.42
2023-04-15T03:28:05.556Z,99031.75
2023-04-15T03:33:10.254Z,99035.09
2023-04-15T03:38:14.560Z,99048.00
2023-04-15T03:43:18.231Z,99055.10
2023-04-15T03:48:21.998Z,99063.05
2023-04-15T03:53:25.676Z,99083.72
2023-04-15T03:58:29.472Z,99089.14
2023-04-15T04:03:34.005Z,99095.55
2023-04-15T04:08:37.925Z,99104.45
2023-04-15T04:13:41.741Z,99107.73
2023-04-15T04:18:45.380Z,99108.00
2023-04-15T04:23:49.195Z,99114.80
2023-04-15T04:28:52.859Z,99121.05
2023-04-15T04:33:56.577Z,99132.98
2023-04-15T04:39:01.867Z,99134.60
2023-04-15T04:44:05.769Z,99140.04
2023-04-15T04:49:09.556Z,99150.85
2023-04-15T04:54:13.356Z,99153.56
2023-04-15T04:59:18.387Z,99153.42
2023-04-15T05:04:23.189Z,99156.57
2023-04-15T05:09:27.116Z,99160.33
2023-04-15T05:14:31.490Z,99153.73
2023-04-15T05:19:35.379Z,99158.60
2023-04-15T05:24:39.142Z,99170.52
2023-04-15T05:29:43.032Z,99168.85
2023-04-15T05:34:46.714Z,99171.80
2023-04-15T05:39:50.518Z,99185.62
2023-04-15T05:44:54.289Z,99193.79
2023-04-15T05:49:59.497Z,99190.27
2023-04-15T05:55:03.388Z,99198.02
2023-04-15T06:00:07.904Z,99211.39
2023-04-15T06:05:14.763Z,99216.80
2023-04-15T06:10:18.503Z,99224.66
2023-04-15T06:15:22.496Z,99231.52
2023-04-15T06:20:26.520Z,99236.29
2023-04-15T06:25:30.182Z,99237.11
2023-04-15T06:30:33.891Z,99240.77
2023-04-15T06:35:37.992Z,99244.04
2023-04-15T06:40:42.770Z,99245.26
2023-04-15T06:45:46.717Z,99247.89
2023-04-15T06:50:51.198Z,99252.38
2023-04-15T06:55:54.940Z,99253.96
2023-04-15T07:00:58.656Z,99258.21
2023-04-15T07:06:06.712Z,99264.89
2023-04-15T07:11:10.345Z,99271.95
2023-04-15T07:16:14.139Z,99276.44
2023-04-15T07:21:18.344Z,99283.75
2023-04-15T07:26:21.971Z,99287.02
2023-04-15T07:31:25.547Z,99296.33
2023-04-15T07:36:29.746Z,99300.67
2023-04-15T07:41:33.744Z,99300.92
2023-04-15T07:46:38.777Z,99298.80
2023-04-15T07:51:43.427Z,99293.10
2023-04-15T07:56:49.230Z,99292.02
2023-04-15T08:01:52.809Z,99294.30
2023-04-15T08:06:56.427Z,99302.98
2023-04-15T08:11:59.944Z,99309.35
2023-04-15T08:17:04.620Z,99316.95
2023-04-15T08:22:10.454Z,99327.27
2023-04-15T08:27:22.437Z,99333.19
2023-04-15T08:32:27.146Z,99335.04
2023-04-15T08:37:30.869Z,99340.17
2023-04-15T08:42:38.619Z,99343.59
2023-04-15T08:47:43.806Z,99341.84
2023-04-15T08:52:47.617Z,99346.42
2023-04-15T08:57:51.747Z,99347.82
2023-04-15T09:02:59.808Z,99349.91
2023-04-15T09:08:04.428Z,99355.35
2023-04-15T09:13:08.099Z,99353.39
2023-04-15T09:18:14.990Z,99350.14
2023-04-15T09:23:18.528Z,99349.84
2023-04-15T09:28:26.902Z,99354.91
2023-04-15T09:33:31.780Z,99357.63
2023-04-15T09:38:36.452Z,99362.38
2023-04-15T09:43:41.114Z,99365.75
2023-04-15T09:48:44.830Z,99372.27
2023-04-15T09:53:55.111Z,99372.53
2023-04-15T09:58:58.879Z,99384.44
2023-04-15T10:04:05.055Z,99387.61
2023-04-15T10:09:08.867Z,99384.89
2023-04-15T10:14:13.958Z,99388.65
2023-04-15T10:19:20.060Z,99384.33
2023-04-15T10:24:24.720Z,99385.77
2023-04-15T10:29:28.676Z,99386.23
2023-04-15T10:34:32.950Z,99384.88
2023-04-15T10:39:42.037Z,99388.84
2023-04-15T10:44:51.918Z,99391.05
2023-04-15T10:50:00.741Z,99391.07
2023-04-15T10:55:18.418Z,99399.55
2023-04-15T11:00:26.822Z,99403.42
2023-04-15T11:05:50.815Z,99411.52
2023-04-15T11:10:54.789Z,99407.30
2023-04-15T11:15:59.561Z,99413.09
2023-04-15T11:21:07.833Z,99407.77
2023-04-15T11:26:15.124Z,99415.95
2023-04-15T11:31:20.480Z,99419.40
2023-04-15T11:36:28.762Z,99419.75
2023-04-15T11:41:32.377Z,99420.23
2023-04-15T11:46:36.152Z,99422.77
2023-04-15T11:51:39.835Z,99428.11
2023-04-15T11:56:51.160Z,99429.33
2023-04-15T12:01:55.390Z,99434.39
2023-04-15T12:07:06.316Z,99444.06
2023-04-15T12:12:12.553Z,99450.42
2023-04-15T12:17:17.290Z,99449.89
2023-04-15T12:22:22.589Z,99456.23
2023-04-15T12:27:29.686Z,99458.26
2023-04-15T12:32:36.872Z,99458.05
2023-04-15T12:37:40.622Z,99463.42
2023-04-15T12:42:45.307Z,99459.78
2023-04-15T12:47:49.134Z,99462.12
2023-04-15T12:52:52.806Z,99461.27
2023-04-15T12:57:59.580Z,99460.77
2023-04-15T13:03:06.244Z,99459.48
2023-04-15T13:08:11.134Z,99455.50
2023-04-15T13:13:14.838Z,99460.04
2023-04-15T13:18:18.485Z,99462.77
2023-04-15T13:23:22.132Z,99466.91
2023-04-15T13:28:25.968Z,99474.45
2023-04-15T13:33:29.691Z,99471.22
2023-04-15T13:38:33.419Z,99468.69
2023-04-15T13:43:37.982Z,99468.77
2023-04-15T13:48:42.380Z,99468.20
2023-04-15T13:53:46.398Z,99458.65
2023-04-15T13:58:50.258Z,99460.13
2023-04-15T14:03:54.126Z,99463.77
2023-04-15T14:08:58.052Z,99471.00
2023-04-15T14:14:02.996Z,99468.25
2023-04-15T14:19:07.370Z,99472.66
2023-04-15T14:24:11.647Z,99468.06
2023-04-15T14:29:15.734Z,99473.16
2023-04-15T14:34:19.702Z,99479.35
2023-04-15T14:39:24.027Z,99488.95
2023-04-15T14:44:27.714Z,99496.29
2023-04-15T14:49:31.785Z,99494.95
2023-04-15T14:54:36.546Z,99500.79
2023-04-15T14:59:40.700Z,99506.95
2023-04-15T15:04:44.850Z,99507.77
2023-04-15T15:09:48.741Z,99515.05
2023-04-15T15:14:52.350Z,99519.02
2023-04-15T15:19:56.900Z,99527.92
2023-04-15T15:25:02.510Z,99522.86
2023-04-15T15:30:07.745Z,99527.26
2023-04-15T15:35:11.965Z,99525.75
2023-04-15T15:40:15.810Z,99533.64
2023-04-15T15:45:19.541Z,99538.26
2023-04-15T15:50:23.773Z,99543.02
2023-04-15T15:55:28.123Z,99547.19
2023-04-15T16:00:31.876Z,99555.34
2023-04-15T16:05:36.746Z,99557.46
2023-04-15T16:10:41.643Z,99564.98
2023-04-15T16:15:46.173Z,99569.23
2023-04-15T16:20:50.223Z,99572.12
2023-04-15T16:25:54.764Z,99577.41
2023-04-15T16:31:00.211Z,99589.88
2023-04-15T16:36:05.683Z,99595.39
2023-04-15T16:41:10.436Z,99599.06
2023-04-15T16:46:14.288Z,99604.39
2023-04-15T16:51:19.118Z,99605.93
2023-04-15T16:56:23.998Z,99605.70
2023-04-15T17:01:27.639Z,99609.24
2023-04-15T17:06:32.644Z,99616.44
2023-04-15T17:11:39.256Z,99627.66
2023-04-15T17:16:43.579Z,99638.91
2023-04-15T17:21:48.966Z,99646.16
2023-04-15T17:26:54.822Z,99651.81
2023-04-15T17:31:59.583Z,99658.67
2023-04-15T17:37:04.439Z,99670.52
2023-04-15T17:42:12.022Z,99677.39
2023-04-15T17:47:18.821Z,99683.68
2023-04-15T17:52:25.447Z,99688.16
2023-04-15T17:57:30.779Z,99706.02
2023-04-15T18:02:36.984Z,99718.32
2023-04-15T18:07:45.518Z,99730.02
2023-04-15T18:12:51.151Z,99734.69
2023-04-15T18:17:56.349Z,99741.23
2023-04-15T18:23:01.207Z,99752.59
2023-04-15T18:28:10.622Z,99764.90
2023-04-15T18:33:16.192Z,99779.05
2023-04-15T18:38:20.735Z,99787.46
2023-04-15T18:43:26.221Z,99790.09
2023-04-15T18:48:31.471Z,99792.85
2023-04-15T18:53:39.092Z,99793.25
2023-04-15T18:59:08.788Z,99797.59
2023-04-15T19:04:09.298Z,99797.60
2023-04-15T19:09:16.296Z,99805.41
2023-04-15T19:14:21.612Z,99815.09
2023-04-15T19:19:26.512Z,99827.02
2023-04-15T19:24:33.226Z,99828.89
2023-04-15T19:29:39.614Z,99835.59
2023-04-15T19:34:49.892Z,99838.07
2023-04-15T19:39:58.361Z,99848.74
2023-04-15T19:45:07.493Z,99849.50
2023-04-15T19:50:14.771Z,99847.55
2023-04-15T19:55:22.074Z,99854.34
2023-04-15T20:00:30.869Z,99853.20
2023-04-15T20:05:39.167Z,99855.52
2023-04-15T20:10:44.857Z,99855.14
2023-04-15T20:15:50.511Z,99864.63
2023-04-15T20:20:55.392Z,99872.16
2023-04-15T20:26:03.910Z,99874.89
2023-04-15T20:31:11.774Z,99875.04
2023-04-15T20:36:23.298Z,99875.16
2023-04-15T20:41:29.420Z,99882.20
2023-04-15T20:46:33.635Z,99887.77
2023-04-15T20:51:39.540Z,99889.70
2023-04-15T20:56:43.622Z,99895.66
2023-04-15T21:01:47.810Z,99898.02
2023-04-15T21:06:54.748Z,99901.48
2023-04-15T21:12:01.251Z,99906.05
2023-04-15T21:17:11.024Z,99911.83
2023-04-15T21:22:16.302Z,99916.41
2023-04-15T21:27:20.694Z,99915.23
2023-04-15T21:32:25.838Z,99918.75
2023-04-15T21:37:29.568Z,99919.61
2023-04-15T21:42:33.315Z,99919.92
2023-04-15T21:48:05.455Z,99927.33
2023-04-15T21:53:00.818Z,99933.61
2023-04-15T21:58:04.768Z,99938.34
2023-04-15T22:03:09.978Z,99944.36
2023-04-15T22:08:14.504Z,99947.11
2023-04-15T22:13:18.581Z,99955.98
2023-04-15T22:18:22.426Z,99965.46
2023-04-15T22:23:26.526Z,99964.52
2023-04-15T22:28:30.714Z,99964.11
2023-04-15T22:33:34.527Z,99972.67
2023-04-15T22:38:38.538Z,99981.23
2023-04-15T22:43:42.480Z,99986.06
2023-04-15T22:48:46.230Z,99990.41
2023-04-15T22:53:50.760Z,99997.43
2023-04-15T22:58:54.423Z,100002.34
2023-04-15T23:04:08.796Z,100012.58
2023-04-15T23:09:22.795Z,100008.48
2023-04-15T23:14:28.349Z,100014.27
2023-04-15T23:19:32.004Z,100022.91
2023-04-15T23:24:35.741Z,100024.63
2023-04-15T23:29:39.512Z,100022.52
2023-04-15T23:34:43.400Z,100029.12
2023-04-15T23:39:47.163Z,100025.14
2023-04-15T23:44:51.266Z,100022.27
2023-04-15T23:49:54.810Z,100023.55
2023-04-15T23:54:58.608Z,100018.52
